Detall de PIREP

Printer-friendly versionPDF version

[2012/08/15 09:31:00]
Flight IATA:CT2114
Pilot Number:042
Company ICAO:CAT
Aircraft Type:B738/F
PAX:98
Departing Airport: LEVC
Destination Airport: LEXJ
Alternate Airport:LEMD
Online: VATSIM
Route:CENTA A33 PRADO/N0426F340 UN733 CJN DCT RBO UN867 BLV
Flight Level:F330
No Slew and time accel
No pause
Crash detect
Detect pilot in Cockpit between each 30 and 45 minutes
09:31 Zero fuel Weight: 118701 Lbs, Fuel Weight: 46049 Lbs
09:31 VATSIM:LEVC 150900Z 00000KT CAVOK 31/12 Q1013 NOSIG
09:31 VATSIM:LEXJ 150900Z 06001KT 9999 BKN030 20/17 Q1010
09:31 VOICE CATALONIAN
09:46 Parking Brakes off
09:50 Take-off
09:50 Take off Weight: 163916 Lbs
09:50 Wind: 244º @ 009 Knots Heading: 292º
09:50 POS N39º 29´ 41´´ W000º 29´ 48´´
09:50 Gear Up: 171 Knots
09:50 Flaps:5 at 171 Knots
09:50 Flaps:4 at 156 Knots
09:51 Flaps:3 at 177 Knots
09:51 Flaps:2 at 215 Knots
09:51 Flaps:1 at 224 Knots
09:51 Flaps:0 at 224 Knots
10:05 Wind:236º@042 Knots Heading: 294º Ground Speed: 429 Knots Altitude 25318 ft
10:13 TOC
10:13 Fuel Weight: 40713 Lb
10:15 TOD
10:15 Fuel Weight: 40471 Lb
10:20 Wind:215º@031 Knots Heading: 008º Ground Speed: 495 Knots Altitude 32076 ft
10:31 Flaps:1 at 291 Knots
10:32 Flaps:0 at 274 Knots
10:32 Flaps:1 at 259 Knots
10:34 Flaps:2 at 231 Knots
10:35 Wind:358º@008 Knots Heading: 286º Ground Speed: 266 Knots Altitude 10187 ft
10:37 Flaps:3 at 213 Knots
10:42 Flaps:4 at 165 Knots
10:43 Gear Down: 173 Knots
10:43 Flaps:5 at 172 Knots
10:43 Flaps:6 at 166 Knots
10:43 Flaps:7 at 156 Knots
10:43 Flaps:8 at 151 Knots
10:46 TouchDown:Rate -239 ft/min Speed: 143 Knots
10:47 VATSIM:LEXJ 151030Z 03005KT 330V080 9999 FEW040 22/15 Q1012
10:47 Land
10:47 Wind:359º@005 Knots
10:47 Heading: 291º
10:47 Flight Duration: 00:57
10:47 Landing Weight: 157231 Lbs
10:47 POS N43º 25´ 40´´ W003º 49´ 24´´
10:50 Parking brakes on
10:50 Block to Block Duration: 01:04
10:50 Final Fuel: 38134 Lbls
10:50 Spent Fuel: 7914 Lbls
10:50 Flight Length: 337 NM
10:50 TOD Land Length: 174 NM

Exportar CSV

Powered by Drupal - Modified by Danger4k